createdAt,value
2019-02-25T00:02:25.810Z,40.90
2019-02-25T00:04:55.913Z,40.20
2019-02-25T00:07:25.935Z,41.30
2019-02-25T00:09:56.163Z,41.00
2019-02-25T00:12:26.393Z,41.20
2019-02-25T00:14:56.205Z,41.00
2019-02-25T00:17:26.436Z,41.70
2019-02-25T00:19:57.040Z,41.20
2019-02-25T00:22:27.121Z,42.00
2019-02-25T00:24:57.488Z,42.40
2019-02-25T00:27:27.522Z,43.10
2019-02-25T00:29:58.037Z,43.80
2019-02-25T00:32:28.703Z,45.20
2019-02-25T00:34:59.075Z,44.80
2019-02-25T00:37:28.822Z,45.70
2019-02-25T00:39:59.128Z,45.30
2019-02-25T00:42:29.404Z,41.30
2019-02-25T00:44:59.629Z,42.10
2019-02-25T00:47:29.540Z,41.80
2019-02-25T00:49:59.806Z,41.30
2019-02-25T00:52:30.137Z,42.40
2019-02-25T00:55:00.332Z,42.20
2019-02-25T00:57:30.231Z,44.20
2019-02-25T01:00:00.850Z,44.90
2019-02-25T01:02:31.446Z,44.50
2019-02-25T01:05:01.518Z,45.20
2019-02-25T01:07:31.747Z,46.30
2019-02-25T01:10:02.043Z,47.30
2019-02-25T01:12:31.980Z,47.70
2019-02-25T01:15:01.918Z,47.40
2019-02-25T01:17:32.699Z,48.20
2019-02-25T01:20:03.097Z,48.20
2019-02-25T01:22:32.759Z,48.00
2019-02-25T01:25:03.116Z,48.20
2019-02-25T01:27:33.510Z,47.70
2019-02-25T01:30:04.477Z,46.30
2019-02-25T01:32:34.400Z,47.80
2019-02-25T01:35:05.223Z,46.60
2019-02-25T01:37:35.223Z,45.10
2019-02-25T01:40:06.013Z,47.30
2019-02-25T01:42:36.740Z,49.20
2019-02-25T01:45:08.256Z,48.50
2019-02-25T01:47:37.606Z,47.70
2019-02-25T01:50:07.922Z,47.50
2019-02-25T01:52:38.394Z,47.00
2019-02-25T01:55:09.375Z,47.30
2019-02-25T01:57:39.100Z,49.00
2019-02-25T02:00:14.418Z,48.20
2019-02-25T02:02:44.483Z,49.10
2019-02-25T02:05:15.106Z,49.30
2019-02-25T02:07:45.338Z,46.20
2019-02-25T02:10:16.061Z,47.50
2019-02-25T02:12:46.018Z,43.20
2019-02-25T02:15:15.931Z,45.30
2019-02-25T02:17:46.619Z,45.00
2019-02-25T02:20:17.066Z,45.90
2019-02-25T02:22:47.368Z,45.00
2019-02-25T02:25:16.760Z,44.80
2019-02-25T02:27:47.394Z,46.30
2019-02-25T02:30:18.483Z,47.70
2019-02-25T02:32:48.982Z,46.50
2019-02-25T02:35:18.951Z,47.90
2019-02-25T02:37:49.249Z,46.30
2019-02-25T02:40:20.068Z,47.00
2019-02-25T02:42:52.955Z,44.50
2019-02-25T02:45:26.571Z,46.40
2019-02-25T02:48:02.944Z,46.20
2019-02-25T02:50:32.218Z,46.20
2019-02-25T02:53:02.642Z,45.20
2019-02-25T02:55:33.013Z,46.30
2019-02-25T02:58:03.134Z,46.10
2019-02-25T03:00:33.542Z,43.30
2019-02-25T03:03:03.645Z,43.70
2019-02-25T03:05:33.368Z,47.20
2019-02-25T03:11:39.159Z,45.00
2019-02-25T03:14:09.735Z,49.80
2019-02-25T03:16:39.607Z,48.50
2019-02-25T03:19:10.305Z,50.60
2019-02-25T03:21:39.908Z,51.10
2019-02-25T03:24:09.857Z,52.80
2019-02-25T03:26:42.026Z,53.20
2019-02-25T03:29:12.902Z,54.00
2019-02-25T03:31:42.273Z,51.90
2019-02-25T03:34:12.312Z,52.40
2019-02-25T03:36:42.698Z,51.50
2019-02-25T03:39:12.910Z,48.90
2019-02-25T03:41:43.207Z,50.10
2019-02-25T03:44:12.770Z,50.80
2019-02-25T03:46:43.646Z,49.70
2019-02-25T03:49:13.942Z,49.20
2019-02-25T03:51:44.182Z,50.80
2019-02-25T03:54:14.111Z,49.80
2019-02-25T03:56:44.365Z,50.60
2019-02-25T03:59:14.910Z,49.30
2019-02-25T04:01:45.254Z,50.50
2019-02-25T04:04:15.247Z,50.20
2019-02-25T04:06:45.296Z,52.40
2019-02-25T04:09:15.203Z,53.10
2019-02-25T04:11:45.423Z,52.70
2019-02-25T04:14:15.343Z,51.60
2019-02-25T04:16:45.622Z,52.70
2019-02-25T04:19:16.443Z,53.80
2019-02-25T04:21:46.147Z,54.50
2019-02-25T04:24:16.054Z,51.50
2019-02-25T04:26:46.138Z,53.70
2019-02-25T04:29:16.507Z,56.00
2019-02-25T04:31:46.460Z,56.80
2019-02-25T04:34:16.561Z,57.30
2019-02-25T04:36:46.559Z,58.70
2019-02-25T04:39:16.635Z,57.20
2019-02-25T04:41:46.192Z,58.40
2019-02-25T04:44:15.756Z,58.40
2019-02-25T04:46:46.094Z,57.90
2019-02-25T04:49:16.647Z,52.80
2019-02-25T04:51:46.925Z,55.90
2019-02-25T04:54:16.538Z,53.10
2019-02-25T04:56:46.780Z,54.80
2019-02-25T04:59:55.537Z,52.90
2019-02-25T05:02:25.855Z,52.40
2019-02-25T05:04:55.369Z,53.00
2019-02-25T05:07:25.287Z,54.80
2019-02-25T05:09:55.339Z,55.30
2019-02-25T05:12:25.414Z,56.00
2019-02-25T05:15:04.187Z,53.70
2019-02-25T05:17:34.434Z,51.40
2019-02-25T05:20:04.276Z,52.30
2019-02-25T05:22:33.604Z,53.40
2019-02-25T05:25:04.118Z,54.70
2019-02-25T05:27:34.473Z,56.00
2019-02-25T05:30:04.654Z,57.30
2019-02-25T05:32:35.304Z,56.70
2019-02-25T05:35:06.705Z,57.20
2019-02-25T05:37:36.774Z,58.00
2019-02-25T05:40:09.358Z,60.30
2019-02-25T05:42:39.538Z,61.30
2019-02-25T05:45:09.958Z,61.50
2019-02-25T05:47:40.294Z,61.00
2019-02-25T05:50:12.396Z,62.30
2019-02-25T05:52:42.863Z,60.50
2019-02-25T05:55:14.096Z,65.10
2019-02-25T05:57:44.256Z,60.20
2019-02-25T06:00:19.046Z,58.90
2019-02-25T06:02:49.123Z,61.30
2019-02-25T06:05:19.395Z,61.60
2019-02-25T06:07:49.680Z,62.50
2019-02-25T06:10:20.300Z,55.60
2019-02-25T06:12:51.003Z,59.30
2019-02-25T06:15:21.332Z,56.20
2019-02-25T06:17:51.638Z,54.80
2019-02-25T06:20:21.912Z,56.90
2019-02-25T06:22:52.144Z,55.50
2019-02-25T06:25:24.505Z,55.80
2019-02-25T06:27:54.388Z,54.80
2019-02-25T06:30:24.175Z,56.50
2019-02-25T06:32:54.726Z,60.20
2019-02-25T06:35:25.104Z,58.80
2019-02-25T06:37:55.709Z,60.50
2019-02-25T06:40:26.178Z,59.70
2019-02-25T06:42:57.058Z,60.50
2019-02-25T06:45:26.942Z,60.40
2019-02-25T06:47:58.511Z,59.90
2019-02-25T06:50:27.986Z,57.40
2019-02-25T06:52:58.659Z,58.20
2019-02-25T06:55:28.733Z,57.40
2019-02-25T06:57:59.237Z,56.60
2019-02-25T07:00:29.513Z,56.30
2019-02-25T07:02:59.959Z,53.90
2019-02-25T07:05:48.638Z,53.60
2019-02-25T07:08:28.789Z,52.60
2019-02-25T07:11:14.424Z,53.40
2019-02-25T07:13:59.232Z,52.10
2019-02-25T07:16:42.443Z,51.20
2019-02-25T07:19:31.956Z,51.10
2019-02-25T07:22:18.841Z,49.90
2019-02-25T07:25:09.015Z,48.90
2019-02-25T07:28:10.922Z,48.40
2019-02-25T07:30:47.614Z,48.80
2019-02-25T07:33:42.802Z,49.60
2019-02-25T07:36:21.248Z,48.90
2019-02-25T07:39:19.412Z,49.40
2019-02-25T07:42:23.617Z,49.90
2019-02-25T07:45:11.500Z,49.60
2019-02-25T07:47:53.638Z,49.10
2019-02-25T07:50:47.458Z,48.60
2019-02-25T07:53:24.779Z,47.90
2019-02-25T07:56:13.974Z,49.50
2019-02-25T07:58:59.265Z,49.10
2019-02-25T08:01:47.603Z,49.70
2019-02-25T08:04:49.082Z,51.10
2019-02-25T08:07:43.805Z,51.20
2019-02-25T08:10:29.006Z,51.10
2019-02-25T08:13:20.527Z,50.50
2019-02-25T08:15:59.935Z,50.60
2019-02-25T08:18:55.082Z,50.40
2019-02-25T08:21:34.407Z,50.80
2019-02-25T08:24:35.937Z,50.30
2019-02-25T08:27:25.729Z,48.20
2019-02-25T08:30:23.516Z,49.40
2019-02-25T08:33:00.762Z,49.80
2019-02-25T08:36:32.940Z,49.50
2019-02-25T08:39:29.937Z,50.00
2019-02-25T08:42:17.926Z,49.70
2019-02-25T08:45:01.079Z,49.90
2019-02-25T08:47:51.075Z,49.50
2019-02-25T08:50:22.526Z,47.70
2019-02-25T08:52:53.183Z,47.60
2019-02-25T08:55:23.071Z,47.80
2019-02-25T08:57:53.487Z,47.90
2019-02-25T09:00:23.723Z,46.50
2019-02-25T09:02:54.282Z,45.90
2019-02-25T09:05:24.882Z,45.00
2019-02-25T09:07:55.901Z,45.10
2019-02-25T09:10:27.347Z,45.80
2019-02-25T09:12:57.374Z,45.00
2019-02-25T09:15:27.595Z,45.00
2019-02-25T09:17:55.413Z,44.50
2019-02-25T09:20:25.301Z,44.00
2019-02-25T09:22:55.069Z,43.80
2019-02-25T09:25:24.968Z,43.90
2019-02-25T09:27:55.494Z,44.30
2019-02-25T09:30:26.580Z,44.10
2019-02-25T09:32:57.396Z,45.00
2019-02-25T09:35:29.979Z,45.10
2019-02-25T09:38:00.016Z,45.20
2019-02-25T09:40:30.955Z,45.20
2019-02-25T09:43:01.545Z,44.80
2019-02-25T09:45:32.190Z,45.10
2019-02-25T09:48:02.369Z,45.20
2019-02-25T09:50:33.775Z,45.80
2019-02-25T09:53:04.619Z,46.90
2019-02-25T09:55:35.215Z,46.10
2019-02-25T09:58:05.125Z,46.20
2019-02-25T10:00:36.152Z,45.70
2019-02-25T10:03:06.406Z,46.10
2019-02-25T10:05:37.489Z,45.30
2019-02-25T10:08:07.623Z,44.70
2019-02-25T10:10:38.239Z,45.00
2019-02-25T10:13:08.524Z,44.80
2019-02-25T10:15:39.597Z,45.60
2019-02-25T10:18:10.583Z,43.70
2019-02-25T10:20:41.227Z,44.20
2019-02-25T10:23:11.876Z,44.80
2019-02-25T10:25:42.502Z,46.00
2019-02-25T10:28:12.749Z,46.00
2019-02-25T10:30:52.381Z,44.80
2019-02-25T10:33:15.330Z,44.30
2019-02-25T10:35:45.650Z,44.80
2019-02-25T10:38:15.877Z,43.80
2019-02-25T10:40:47.523Z,43.50
2019-02-25T10:43:20.447Z,43.60
2019-02-25T10:45:52.676Z,43.90
2019-02-25T10:48:23.615Z,43.90
2019-02-25T10:50:56.634Z,44.60
2019-02-25T10:53:26.858Z,45.20
2019-02-25T10:56:14.530Z,44.60
2019-02-25T10:58:45.876Z,44.60
2019-02-25T11:01:19.669Z,44.40
2019-02-25T11:03:49.979Z,44.60
2019-02-25T11:06:25.136Z,45.40
2019-02-25T11:09:02.293Z,45.60
2019-02-25T11:11:35.158Z,46.20
2019-02-25T11:14:05.535Z,45.80
2019-02-25T11:16:37.856Z,45.20
2019-02-25T11:19:08.286Z,44.60
2019-02-25T11:21:39.882Z,44.60
2019-02-25T11:24:10.894Z,44.60
2019-02-25T11:26:42.126Z,44.40
2019-02-25T11:29:13.869Z,43.40
2019-02-25T11:31:47.402Z,43.60
2019-02-25T11:34:19.214Z,44.10
2019-02-25T11:36:50.851Z,44.50
2019-02-25T11:39:22.166Z,45.60
2019-02-25T11:41:52.811Z,44.80
2019-02-25T11:44:25.593Z,45.10
2019-02-25T11:46:54.880Z,44.90
2019-02-25T11:49:25.355Z,45.60
2019-02-25T11:51:55.903Z,45.10
2019-02-25T11:54:26.754Z,45.10
2019-02-25T11:56:57.539Z,44.40
2019-02-25T11:59:27.987Z,43.60
2019-02-25T12:01:57.966Z,43.00
2019-02-25T12:04:27.998Z,44.20
2019-02-25T12:06:58.097Z,44.40
2019-02-25T12:09:28.372Z,43.80
2019-02-25T12:11:58.151Z,43.80
2019-02-25T12:14:29.004Z,45.00
2019-02-25T12:16:59.367Z,45.60
2019-02-25T12:19:29.895Z,45.70
2019-02-25T12:22:00.463Z,45.70
2019-02-25T12:24:30.192Z,46.10
2019-02-25T12:27:00.621Z,46.50
2019-02-25T12:29:31.109Z,47.20
2019-02-25T12:32:01.220Z,47.40
2019-02-25T12:34:31.792Z,47.00
2019-02-25T12:37:02.211Z,47.30
2019-02-25T12:39:33.070Z,47.50
2019-02-25T12:42:03.570Z,46.50
2019-02-25T12:44:33.297Z,46.60
2019-02-25T12:47:03.689Z,47.40
2019-02-25T12:49:33.775Z,47.20
2019-02-25T12:52:03.618Z,46.70
2019-02-25T12:54:33.570Z,46.50
2019-02-25T12:57:04.101Z,46.30
2019-02-25T12:59:34.305Z,46.60
2019-02-25T13:02:04.841Z,46.30
2019-02-25T13:04:34.997Z,46.50
2019-02-25T13:07:05.877Z,47.00
2019-02-25T13:09:36.725Z,47.20
2019-02-25T13:12:07.155Z,47.00
2019-02-25T13:14:37.933Z,47.20
2019-02-25T13:17:08.428Z,47.80
2019-02-25T13:19:38.770Z,47.70
2019-02-25T13:22:09.264Z,48.30
2019-02-25T13:24:39.661Z,48.70
2019-02-25T13:27:11.782Z,48.00
2019-02-25T13:29:43.362Z,48.40
2019-02-25T13:32:13.680Z,48.80
2019-02-25T13:34:43.998Z,48.80
2019-02-25T13:37:14.002Z,48.70
2019-02-25T13:39:44.476Z,48.30
2019-02-25T13:42:15.928Z,48.40
2019-02-25T13:44:46.075Z,48.80
2019-02-25T13:47:16.717Z,48.80
2019-02-25T13:49:47.745Z,48.80
2019-02-25T13:52:17.738Z,48.70
2019-02-25T13:54:48.402Z,48.90
2019-02-25T13:57:18.772Z,48.30
2019-02-25T13:59:48.688Z,48.80
2019-02-25T14:02:18.558Z,49.00
2019-02-25T14:04:49.344Z,47.70
2019-02-25T14:07:23.762Z,48.50
2019-02-25T14:09:54.205Z,48.40
2019-02-25T14:12:24.667Z,48.80
2019-02-25T14:14:54.993Z,49.50
2019-02-25T14:17:26.407Z,49.20
2019-02-25T14:19:56.519Z,49.20
2019-02-25T14:22:26.585Z,49.20
2019-02-25T14:24:56.360Z,49.20
2019-02-25T14:27:27.137Z,49.30
2019-02-25T14:29:59.010Z,49.70
2019-02-25T14:32:29.984Z,49.30
2019-02-25T14:35:00.405Z,49.40
2019-02-25T14:37:30.695Z,49.20
2019-02-25T14:40:03.558Z,49.20
2019-02-25T14:42:33.720Z,49.50
2019-02-25T14:45:07.263Z,49.20
2019-02-25T14:47:39.464Z,49.70
2019-02-25T14:50:13.167Z,49.30
2019-02-25T14:52:43.369Z,49.30
2019-02-25T14:55:13.916Z,49.20
2019-02-25T14:57:44.554Z,49.40
2019-02-25T15:00:19.090Z,49.60
2019-02-25T15:02:50.353Z,49.90
2019-02-25T15:05:21.932Z,50.20
2019-02-25T15:07:53.382Z,50.80
2019-02-25T15:10:26.643Z,51.00
2019-02-25T15:12:58.663Z,51.40
2019-02-25T15:15:28.043Z,51.50
2019-02-25T15:17:58.568Z,51.70
2019-02-25T15:20:28.842Z,51.80
2019-02-25T15:22:59.634Z,52.00
2019-02-25T15:25:31.632Z,52.30
2019-02-25T15:28:02.374Z,52.40
2019-02-25T15:30:32.455Z,52.60
2019-02-25T15:33:03.540Z,52.90
2019-02-25T15:35:35.154Z,53.20
2019-02-25T15:38:05.192Z,53.00
2019-02-25T15:40:35.329Z,53.60
2019-02-25T15:43:10.430Z,54.20
2019-02-25T15:45:42.487Z,53.90
2019-02-25T15:48:20.432Z,54.20
2019-02-25T15:50:55.500Z,54.20
2019-02-25T15:53:27.084Z,54.40
2019-02-25T15:56:01.048Z,54.50
2019-02-25T15:58:29.751Z,55.10
2019-02-25T16:01:00.126Z,55.30
2019-02-25T16:03:31.898Z,55.90
2019-02-25T16:06:04.326Z,56.10
2019-02-25T16:08:36.134Z,56.60
2019-02-25T16:11:06.382Z,57.00
2019-02-25T16:13:37.739Z,57.20
2019-02-25T16:16:09.955Z,57.70
2019-02-25T16:18:42.564Z,58.20
2019-02-25T16:21:13.294Z,58.60
2019-02-25T16:23:45.390Z,58.90
2019-02-25T16:26:18.258Z,59.00
2019-02-25T16:28:50.393Z,59.30
2019-02-25T16:31:20.816Z,59.50
2019-02-25T16:33:53.345Z,59.40
2019-02-25T16:36:24.557Z,59.80
2019-02-25T16:38:56.261Z,60.40
2019-02-25T16:41:30.187Z,60.80
2019-02-25T16:43:59.574Z,61.20
2019-02-25T16:46:34.194Z,62.80
2019-02-25T16:49:02.211Z,63.00
2019-02-25T16:51:35.170Z,63.10
2019-02-25T16:54:09.234Z,63.80
2019-02-25T16:56:38.994Z,65.10
2019-02-25T16:59:11.114Z,64.80
2019-02-25T17:01:41.688Z,65.30
2019-02-25T17:04:12.099Z,66.50
2019-02-25T17:06:43.321Z,67.10
2019-02-25T17:09:20.399Z,67.80
2019-02-25T17:11:51.182Z,68.90
2019-02-25T17:14:23.955Z,69.80
2019-02-25T17:16:56.760Z,69.40
2019-02-25T17:19:24.974Z,69.10
2019-02-25T17:21:55.405Z,69.60
2019-02-25T17:24:28.192Z,70.20
2019-02-25T17:27:00.026Z,70.30
2019-02-25T17:29:31.946Z,70.20
2019-02-25T17:32:04.674Z,70.20
2019-02-25T17:34:36.744Z,70.20
2019-02-25T17:37:08.127Z,70.20
2019-02-25T17:39:39.768Z,70.40
2019-02-25T17:42:10.599Z,70.50
2019-02-25T17:44:41.412Z,70.50
2019-02-25T17:47:14.468Z,69.50
2019-02-25T17:49:44.060Z,69.40
2019-02-25T17:52:14.540Z,69.80
2019-02-25T17:54:46.612Z,70.40
2019-02-25T17:57:16.841Z,70.60
2019-02-25T17:59:48.348Z,70.20
2019-02-25T18:02:18.144Z,70.10
2019-02-25T18:04:51.007Z,70.20
2019-02-25T18:07:21.924Z,71.10
2019-02-25T18:09:52.396Z,70.60
2019-02-25T18:12:25.430Z,71.00
2019-02-25T18:14:54.498Z,71.70
2019-02-25T18:17:25.525Z,72.50
2019-02-25T18:19:56.769Z,72.80
2019-02-25T18:22:27.045Z,73.30
2019-02-25T18:24:57.615Z,73.30
2019-02-25T18:27:27.789Z,74.30
2019-02-25T18:29:57.870Z,74.10
2019-02-25T18:32:30.479Z,74.50
2019-02-25T18:35:01.767Z,74.70
2019-02-25T18:37:31.942Z,75.30
2019-02-25T18:40:02.432Z,76.00
2019-02-25T18:42:34.359Z,76.10
2019-02-25T18:45:05.398Z,75.90
2019-02-25T18:47:35.947Z,76.30
2019-02-25T18:50:07.575Z,77.20
2019-02-25T18:52:38.497Z,77.80
2019-02-25T18:55:11.133Z,77.30
2019-02-25T18:57:42.168Z,77.80
2019-02-25T19:00:22.057Z,78.20
2019-02-25T19:02:53.573Z,78.80
2019-02-25T19:05:27.164Z,78.30
2019-02-25T19:07:59.636Z,78.20
2019-02-25T19:10:30.913Z,78.00
2019-02-25T19:13:01.870Z,77.70
2019-02-25T19:15:32.758Z,77.10
2019-02-25T19:18:02.508Z,76.70
2019-02-25T19:20:34.795Z,76.20
2019-02-25T19:23:09.334Z,75.40
2019-02-25T19:25:37.286Z,74.50
2019-02-25T19:28:08.535Z,74.40
2019-02-25T19:30:38.950Z,74.40
2019-02-25T19:33:11.490Z,74.90
2019-02-25T19:35:42.067Z,75.10
2019-02-25T19:38:14.670Z,75.00
2019-02-25T19:40:46.598Z,74.40
2019-02-25T19:43:17.393Z,74.10
2019-02-25T19:45:47.179Z,74.00
2019-02-25T19:48:19.260Z,74.50
2019-02-25T19:50:51.404Z,74.30
2019-02-25T19:53:20.686Z,74.40
2019-02-25T19:55:51.728Z,74.50
2019-02-25T19:58:24.473Z,75.20
2019-02-25T20:01:00.357Z,75.70
2019-02-25T20:03:29.013Z,76.30
2019-02-25T20:05:59.100Z,76.70
2019-02-25T20:08:29.135Z,77.00
2019-02-25T20:10:59.765Z,77.90
2019-02-25T20:13:29.858Z,78.00
2019-02-25T20:16:07.647Z,79.30
2019-02-25T20:18:34.960Z,79.70
2019-02-25T20:21:06.472Z,80.00
2019-02-25T20:23:37.003Z,81.40
2019-02-25T20:26:06.630Z,82.80
2019-02-25T20:28:38.646Z,83.90
2019-02-25T20:31:10.114Z,84.30
2019-02-25T20:33:41.957Z,85.50
2019-02-25T20:36:12.927Z,86.30
2019-02-25T20:38:44.510Z,86.50
2019-02-25T20:41:17.971Z,86.90
2019-02-25T20:43:47.250Z,87.00
2019-02-25T20:46:22.028Z,86.50
2019-02-25T20:48:53.150Z,86.10
2019-02-25T20:51:25.052Z,86.50
2019-02-25T20:53:57.226Z,87.60
2019-02-25T20:56:28.789Z,88.00
2019-02-25T20:59:01.109Z,88.30
2019-02-25T21:01:35.181Z,87.50
2019-02-25T21:04:04.699Z,87.40
2019-02-25T21:06:35.871Z,86.70
2019-02-25T21:09:08.917Z,86.40
2019-02-25T21:11:41.026Z,86.80
2019-02-25T21:14:11.533Z,87.40
2019-02-25T21:16:42.053Z,87.10
2019-02-25T21:19:14.832Z,87.10
2019-02-25T21:21:44.732Z,87.70
2019-02-25T21:24:15.265Z,88.10
2019-02-25T21:26:45.397Z,88.90
2019-02-25T21:29:15.523Z,87.00
2019-02-25T21:31:47.543Z,86.70
2019-02-25T21:34:22.059Z,85.00
2019-02-25T21:36:52.437Z,83.60
2019-02-25T21:39:22.474Z,83.20
2019-02-25T21:41:52.814Z,82.70
2019-02-25T21:44:24.205Z,82.40
2019-02-25T21:46:56.252Z,82.70
2019-02-25T21:49:29.222Z,83.60
2019-02-25T21:52:00.262Z,84.50
2019-02-25T21:54:32.258Z,85.20
2019-02-25T21:57:03.352Z,86.20
2019-02-25T21:59:36.509Z,86.70
2019-02-25T22:02:06.628Z,87.30
2019-02-25T22:04:40.442Z,87.80
2019-02-25T22:07:09.132Z,88.60
2019-02-25T22:09:43.114Z,90.00
2019-02-25T22:12:10.971Z,90.00
2019-02-25T22:14:41.229Z,90.40
2019-02-25T22:17:12.972Z,90.70
2019-02-25T22:19:45.454Z,90.80
2019-02-25T22:22:15.161Z,91.00
2019-02-25T22:24:45.271Z,91.00
2019-02-25T22:27:16.355Z,91.30
2019-02-25T22:29:47.499Z,91.50
2019-02-25T22:32:17.551Z,91.50
2019-02-25T22:34:48.008Z,91.60
2019-02-25T22:37:19.932Z,91.50
2019-02-25T22:39:52.503Z,91.30
2019-02-25T22:42:24.762Z,90.90
2019-02-25T22:44:56.143Z,90.60
2019-02-25T22:47:26.071Z,90.60
2019-02-25T22:49:56.343Z,90.90
2019-02-25T22:52:27.185Z,91.30
2019-02-25T22:54:58.618Z,91.70
2019-02-25T22:57:29.624Z,91.70
2019-02-25T23:00:00.032Z,92.10
2019-02-25T23:02:30.856Z,91.40
2019-02-25T23:05:01.629Z,91.10
2019-02-25T23:07:32.332Z,91.10
2019-02-25T23:10:02.721Z,90.90
2019-02-25T23:12:32.595Z,91.40
2019-02-25T23:15:05.896Z,90.90
2019-02-25T23:17:35.721Z,91.10
2019-02-25T23:20:09.376Z,90.90
2019-02-25T23:22:39.525Z,91.20
2019-02-25T23:25:09.788Z,91.40
2019-02-25T23:27:39.870Z,91.40
2019-02-25T23:30:10.484Z,91.70
2019-02-25T23:32:40.495Z,92.20
2019-02-25T23:35:13.651Z,92.20
2019-02-25T23:37:45.167Z,92.10
2019-02-25T23:40:16.636Z,91.40
2019-02-25T23:42:48.994Z,91.50
2019-02-25T23:45:21.070Z,91.10
2019-02-25T23:47:55.369Z,90.90
2019-02-25T23:50:25.106Z,91.10
2019-02-25T23:52:55.449Z,91.20
2019-02-25T23:55:27.799Z,91.20
2019-02-25T23:57:57.299Z,91.00
